sensor_id;sensor_type;location;lat;lon;timestamp;pressure;altitude;pressure_sealevel;temperature;humidity
33795;BME280;51430;52.242;21.118;2024-02-28T00:00:31;100269.42;;;11.74;88.87
33795;BME280;51430;52.242;21.118;2024-02-28T00:03:19;100267.04;;;11.78;87.64
33795;BME280;51430;52.242;21.118;2024-02-28T00:05:47;100271.96;;;11.79;86.61
33795;BME280;51430;52.242;21.118;2024-02-28T00:08:15;100266.90;;;11.77;86.41
33795;BME280;51430;52.242;21.118;2024-02-28T00:10:45;100269.92;;;11.77;86.78
33795;BME280;51430;52.242;21.118;2024-02-28T00:13:14;100266.30;;;11.78;87.04
33795;BME280;51430;52.242;21.118;2024-02-28T00:15:43;100271.05;;;11.80;87.31
33795;BME280;51430;52.242;21.118;2024-02-28T00:18:11;100270.82;;;11.81;87.57
33795;BME280;51430;52.242;21.118;2024-02-28T00:20:39;100266.63;;;11.83;87.68
33795;BME280;51430;52.242;21.118;2024-02-28T00:23:07;100270.46;;;11.87;87.75
33795;BME280;51430;52.242;21.118;2024-02-28T00:25:35;100269.25;;;11.91;87.42
33795;BME280;51430;52.242;21.118;2024-02-28T00:28:02;100274.65;;;11.93;87.28
33795;BME280;51430;52.242;21.118;2024-02-28T00:30:32;100272.38;;;12.00;86.95
33795;BME280;51430;52.242;21.118;2024-02-28T00:33:00;100271.96;;;12.05;86.68
33795;BME280;51430;52.242;21.118;2024-02-28T00:35:32;100271.63;;;12.08;86.31
33795;BME280;51430;52.242;21.118;2024-02-28T00:38:01;100270.48;;;12.14;86.08
33795;BME280;51430;52.242;21.118;2024-02-28T00:40:29;100269.06;;;12.18;85.49
33795;BME280;51430;52.242;21.118;2024-02-28T00:42:57;100272.55;;;12.20;85.11
33795;BME280;51430;52.242;21.118;2024-02-28T00:45:25;100273.93;;;12.20;84.71
33795;BME280;51430;52.242;21.118;2024-02-28T00:47:55;100279.23;;;12.18;84.81
33795;BME280;51430;52.242;21.118;2024-02-28T00:50:23;100277.67;;;12.16;85.46
33795;BME280;51430;52.242;21.118;2024-02-28T00:52:50;100279.11;;;12.13;86.06
33795;BME280;51430;52.242;21.118;2024-02-28T00:55:19;100278.09;;;12.15;86.10
33795;BME280;51430;52.242;21.118;2024-02-28T00:57:47;100281.42;;;12.13;85.90
33795;BME280;51430;52.242;21.118;2024-02-28T01:00:15;100284.39;;;12.11;86.74
33795;BME280;51430;52.242;21.118;2024-02-28T01:02:44;100289.06;;;12.09;87.07
33795;BME280;51430;52.242;21.118;2024-02-28T01:05:11;100286.42;;;12.09;87.88
33795;BME280;51430;52.242;21.118;2024-02-28T01:07:39;100283.17;;;12.08;88.32
33795;BME280;51430;52.242;21.118;2024-02-28T01:10:07;100279.61;;;12.03;88.83
33795;BME280;51430;52.242;21.118;2024-02-28T01:12:37;100284.40;;;12.02;89.59
33795;BME280;51430;52.242;21.118;2024-02-28T01:15:08;100290.45;;;11.90;90.67
33795;BME280;51430;52.242;21.118;2024-02-28T01:17:37;100296.83;;;11.81;91.99
33795;BME280;51430;52.242;21.118;2024-02-28T01:20:06;100302.70;;;11.82;91.60
33795;BME280;51430;52.242;21.118;2024-02-28T01:22:35;100303.95;;;11.79;91.92
33795;BME280;51430;52.242;21.118;2024-02-28T01:25:04;100308.27;;;11.80;92.18
33795;BME280;51430;52.242;21.118;2024-02-28T01:27:32;100308.55;;;11.89;91.12
33795;BME280;51430;52.242;21.118;2024-02-28T01:30:00;100310.91;;;11.88;91.88
33795;BME280;51430;52.242;21.118;2024-02-28T01:32:29;100312.17;;;11.88;92.63
33795;BME280;51430;52.242;21.118;2024-02-28T01:34:57;100313.39;;;11.86;92.93
33795;BME280;51430;52.242;21.118;2024-02-28T01:37:26;100316.52;;;11.86;93.43
33795;BME280;51430;52.242;21.118;2024-02-28T01:39:53;100314.48;;;11.87;93.91
33795;BME280;51430;52.242;21.118;2024-02-28T01:42:22;100315.42;;;11.91;94.34
33795;BME280;51430;52.242;21.118;2024-02-28T01:44:50;100312.92;;;11.89;94.59
33795;BME280;51430;52.242;21.118;2024-02-28T01:47:18;100313.85;;;11.91;94.35
33795;BME280;51430;52.242;21.118;2024-02-28T01:49:46;100314.15;;;11.85;94.34
33795;BME280;51430;52.242;21.118;2024-02-28T01:52:15;100319.23;;;11.85;94.90
33795;BME280;51430;52.242;21.118;2024-02-28T01:54:43;100315.02;;;11.87;95.02
33795;BME280;51430;52.242;21.118;2024-02-28T01:57:13;100313.33;;;11.84;95.02
33795;BME280;51430;52.242;21.118;2024-02-28T01:59:41;100309.52;;;11.86;95.47
33795;BME280;51430;52.242;21.118;2024-02-28T02:02:09;100307.97;;;11.81;96.01
33795;BME280;51430;52.242;21.118;2024-02-28T02:04:37;100314.08;;;11.79;96.45
33795;BME280;51430;52.242;21.118;2024-02-28T02:07:06;100314.58;;;11.73;96.56
33795;BME280;51430;52.242;21.118;2024-02-28T02:09:34;100318.39;;;11.65;97.43
33795;BME280;51430;52.242;21.118;2024-02-28T02:12:03;100322.11;;;11.59;98.15
33795;BME280;51430;52.242;21.118;2024-02-28T02:14:31;100324.13;;;11.47;98.95
33795;BME280;51430;52.242;21.118;2024-02-28T02:16:59;100319.02;;;11.41;99.71
33795;BME280;51430;52.242;21.118;2024-02-28T02:19:27;100317.69;;;11.43;100.00
33795;BME280;51430;52.242;21.118;2024-02-28T02:21:58;100321.91;;;11.44;100.00
33795;BME280;51430;52.242;21.118;2024-02-28T02:24:26;100321.11;;;11.46;100.00
33795;BME280;51430;52.242;21.118;2024-02-28T02:26:58;100322.38;;;11.43;100.00
33795;BME280;51430;52.242;21.118;2024-02-28T02:29:27;100325.66;;;11.26;100.00
33795;BME280;51430;52.242;21.118;2024-02-28T02:31:56;100326.16;;;11.11;100.00
33795;BME280;51430;52.242;21.118;2024-02-28T02:34:24;100327.69;;;11.09;100.00
33795;BME280;51430;52.242;21.118;2024-02-28T02:36:52;100320.92;;;11.00;100.00
33795;BME280;51430;52.242;21.118;2024-02-28T02:39:20;100311.84;;;10.98;100.00
33795;BME280;51430;52.242;21.118;2024-02-28T02:41:48;100300.48;;;11.07;100.00
33795;BME280;51430;52.242;21.118;2024-02-28T02:44:16;100292.77;;;11.14;100.00
33795;BME280;51430;52.242;21.118;2024-02-28T02:46:44;100285.67;;;11.14;100.00
33795;BME280;51430;52.242;21.118;2024-02-28T02:49:12;100280.86;;;11.12;100.00
33795;BME280;51430;52.242;21.118;2024-02-28T02:51:40;100280.30;;;11.11;100.00
33795;BME280;51430;52.242;21.118;2024-02-28T02:54:33;100279.89;;;11.07;100.00
33795;BME280;51430;52.242;21.118;2024-02-28T02:57:01;100276.36;;;10.97;100.00
33795;BME280;51430;52.242;21.118;2024-02-28T02:59:29;100272.02;;;11.05;100.00
33795;BME280;51430;52.242;21.118;2024-02-28T03:01:57;100273.84;;;11.09;100.00
33795;BME280;51430;52.242;21.118;2024-02-28T03:04:25;100274.14;;;11.07;100.00
33795;BME280;51430;52.242;21.118;2024-02-28T03:06:52;100272.40;;;11.09;100.00
33795;BME280;51430;52.242;21.118;2024-02-28T03:09:20;100273.50;;;11.11;100.00
33795;BME280;51430;52.242;21.118;2024-02-28T03:11:48;100280.58;;;11.12;100.00
33795;BME280;51430;52.242;21.118;2024-02-28T03:14:16;100283.60;;;11.11;100.00
33795;BME280;51430;52.242;21.118;2024-02-28T03:16:44;100288.27;;;11.09;100.00
33795;BME280;51430;52.242;21.118;2024-02-28T03:19:12;100287.70;;;11.07;100.00
33795;BME280;51430;52.242;21.118;2024-02-28T03:21:40;100290.16;;;11.10;100.00
33795;BME280;51430;52.242;21.118;2024-02-28T03:24:10;100288.39;;;11.12;100.00
33795;BME280;51430;52.242;21.118;2024-02-28T03:26:39;100290.67;;;11.14;100.00
33795;BME280;51430;52.242;21.118;2024-02-28T03:29:07;100287.27;;;11.15;100.00
33795;BME280;51430;52.242;21.118;2024-02-28T03:31:34;100291.00;;;11.15;100.00
33795;BME280;51430;52.242;21.118;2024-02-28T03:34:02;100300.46;;;11.18;100.00
33795;BME280;51430;52.242;21.118;2024-02-28T03:36:30;100306.17;;;11.17;100.00
33795;BME280;51430;52.242;21.118;2024-02-28T03:38:59;100311.48;;;11.16;100.00
33795;BME280;51430;52.242;21.118;2024-02-28T03:41:27;100308.70;;;11.14;100.00
33795;BME280;51430;52.242;21.118;2024-02-28T03:43:55;100309.25;;;11.07;100.00
33795;BME280;51430;52.242;21.118;2024-02-28T03:46:23;100311.53;;;11.02;100.00
33795;BME280;51430;52.242;21.118;2024-02-28T03:48:51;100307.95;;;10.88;100.00
33795;BME280;51430;52.242;21.118;2024-02-28T03:51:19;100312.52;;;10.72;100.00
33795;BME280;51430;52.242;21.118;2024-02-28T03:53:50;100310.77;;;10.74;100.00
33795;BME280;51430;52.242;21.118;2024-02-28T03:56:25;100309.66;;;10.84;100.00
33795;BME280;51430;52.242;21.118;2024-02-28T03:58:54;100302.48;;;10.89;100.00
33795;BME280;51430;52.242;21.118;2024-02-28T04:01:23;100299.37;;;10.91;100.00
33795;BME280;51430;52.242;21.118;2024-02-28T04:03:51;100293.33;;;10.90;100.00
33795;BME280;51430;52.242;21.118;2024-02-28T04:06:19;100287.23;;;10.87;100.00
33795;BME280;51430;52.242;21.118;2024-02-28T04:08:47;100286.52;;;10.85;100.00
33795;BME280;51430;52.242;21.118;2024-02-28T04:11:15;100287.95;;;10.87;100.00
33795;BME280;51430;52.242;21.118;2024-02-28T04:13:45;100282.17;;;10.90;100.00
33795;BME280;51430;52.242;21.118;2024-02-28T04:16:13;100278.70;;;10.87;100.00
33795;BME280;51430;52.242;21.118;2024-02-28T04:18:41;100278.40;;;10.87;100.00
33795;BME280;51430;52.242;21.118;2024-02-28T04:21:11;100278.96;;;10.86;100.00
33795;BME280;51430;52.242;21.118;2024-02-28T04:23:39;100284.90;;;10.86;100.00
33795;BME280;51430;52.242;21.118;2024-02-28T04:26:09;100289.30;;;10.85;100.00
33795;BME280;51430;52.242;21.118;2024-02-28T04:28:37;100292.38;;;10.86;100.00
33795;BME280;51430;52.242;21.118;2024-02-28T04:31:05;100293.83;;;10.84;100.00
33795;BME280;51430;52.242;21.118;2024-02-28T04:33:35;100303.93;;;10.79;100.00
33795;BME280;51430;52.242;21.118;2024-02-28T04:36:03;100311.30;;;10.65;100.00
33795;BME280;51430;52.242;21.118;2024-02-28T04:38:32;100307.16;;;10.64;100.00
33795;BME280;51430;52.242;21.118;2024-02-28T04:41:00;100311.41;;;10.61;100.00
33795;BME280;51430;52.242;21.118;2024-02-28T04:43:55;100314.65;;;10.56;100.00
33795;BME280;51430;52.242;21.118;2024-02-28T04:46:23;100309.73;;;10.40;100.00
33795;BME280;51430;52.242;21.118;2024-02-28T04:48:51;100307.09;;;10.32;100.00
33795;BME280;51430;52.242;21.118;2024-02-28T04:51:19;100308.67;;;10.45;100.00
33795;BME280;51430;52.242;21.118;2024-02-28T04:53:47;100313.01;;;10.47;100.00
33795;BME280;51430;52.242;21.118;2024-02-28T04:56:15;100321.14;;;10.46;100.00
33795;BME280;51430;52.242;21.118;2024-02-28T04:58:43;100327.77;;;10.41;100.00
33795;BME280;51430;52.242;21.118;2024-02-28T05:01:11;100322.10;;;10.29;100.00
33795;BME280;51430;52.242;21.118;2024-02-28T05:03:40;100317.84;;;10.14;100.00
33795;BME280;51430;52.242;21.118;2024-02-28T05:06:08;100321.24;;;10.17;100.00
33795;BME280;51430;52.242;21.118;2024-02-28T05:08:37;100325.98;;;10.17;100.00
33795;BME280;51430;52.242;21.118;2024-02-28T05:11:05;100327.36;;;10.10;100.00
33795;BME280;51430;52.242;21.118;2024-02-28T05:13:37;100330.28;;;10.06;100.00
33795;BME280;51430;52.242;21.118;2024-02-28T05:16:15;100334.42;;;10.11;100.00
33795;BME280;51430;52.242;21.118;2024-02-28T05:18:47;100335.65;;;10.14;100.00
33795;BME280;51430;52.242;21.118;2024-02-28T05:21:15;100334.17;;;10.19;100.00
33795;BME280;51430;52.242;21.118;2024-02-28T05:23:43;100339.05;;;10.15;100.00
33795;BME280;51430;52.242;21.118;2024-02-28T05:26:11;100338.41;;;10.09;100.00
33795;BME280;51430;52.242;21.118;2024-02-28T05:28:39;100343.18;;;10.01;100.00
33795;BME280;51430;52.242;21.118;2024-02-28T05:31:24;100344.60;;;10.03;100.00
33795;BME280;51430;52.242;21.118;2024-02-28T05:33:56;100343.58;;;9.98;100.00
33795;BME280;51430;52.242;21.118;2024-02-28T05:36:29;100347.73;;;9.96;100.00
33795;BME280;51430;52.242;21.118;2024-02-28T05:39:00;100347.68;;;9.97;100.00
33795;BME280;51430;52.242;21.118;2024-02-28T05:41:29;100350.51;;;9.96;100.00
33795;BME280;51430;52.242;21.118;2024-02-28T05:44:00;100351.04;;;10.03;100.00
33795;BME280;51430;52.242;21.118;2024-02-28T05:46:30;100356.96;;;10.03;100.00
33795;BME280;51430;52.242;21.118;2024-02-28T05:48:59;100357.79;;;9.99;100.00
33795;BME280;51430;52.242;21.118;2024-02-28T05:52:09;100358.88;;;10.01;100.00
33795;BME280;51430;52.242;21.118;2024-02-28T05:54:38;100366.34;;;10.11;100.00
33795;BME280;51430;52.242;21.118;2024-02-28T05:57:18;100356.63;;;10.10;100.00
33795;BME280;51430;52.242;21.118;2024-02-28T05:59:47;100356.11;;;9.93;100.00
33795;BME280;51430;52.242;21.118;2024-02-28T06:02:15;100362.60;;;10.04;100.00
33795;BME280;51430;52.242;21.118;2024-02-28T06:04:43;100360.77;;;9.91;100.00
33795;BME280;51430;52.242;21.118;2024-02-28T06:07:11;100363.45;;;10.07;100.00
33795;BME280;51430;52.242;21.118;2024-02-28T06:09:41;100367.80;;;10.19;100.00
33795;BME280;51430;52.242;21.118;2024-02-28T06:12:29;100367.98;;;10.17;100.00
33795;BME280;51430;52.242;21.118;2024-02-28T06:15:10;100375.37;;;9.97;100.00
33795;BME280;51430;52.242;21.118;2024-02-28T06:17:39;100373.17;;;10.05;100.00
33795;BME280;51430;52.242;21.118;2024-02-28T06:20:08;100378.79;;;10.05;100.00
33795;BME280;51430;52.242;21.118;2024-02-28T06:22:48;100384.48;;;10.13;100.00
33795;BME280;51430;52.242;21.118;2024-02-28T06:25:18;100388.91;;;9.99;100.00
33795;BME280;51430;52.242;21.118;2024-02-28T06:27:48;100390.25;;;10.05;100.00
33795;BME280;51430;52.242;21.118;2024-02-28T06:30:24;100391.38;;;9.97;100.00
33795;BME280;51430;52.242;21.118;2024-02-28T06:33:33;100393.30;;;9.94;100.00
33795;BME280;51430;52.242;21.118;2024-02-28T06:36:18;100394.19;;;10.06;100.00
33795;BME280;51430;52.242;21.118;2024-02-28T06:38:47;100398.38;;;10.04;100.00
33795;BME280;51430;52.242;21.118;2024-02-28T06:41:15;100401.63;;;9.87;100.00
33795;BME280;51430;52.242;21.118;2024-02-28T06:43:45;100400.48;;;9.77;100.00
33795;BME280;51430;52.242;21.118;2024-02-28T06:46:14;100399.85;;;9.90;100.00
33795;BME280;51430;52.242;21.118;2024-02-28T06:48:47;100404.05;;;9.95;100.00
33795;BME280;51430;52.242;21.118;2024-02-28T06:51:16;100405.98;;;9.97;100.00
33795;BME280;51430;52.242;21.118;2024-02-28T06:53:45;100405.70;;;10.01;100.00
33795;BME280;51430;52.242;21.118;2024-02-28T06:56:15;100410.96;;;10.13;100.00
33795;BME280;51430;52.242;21.118;2024-02-28T06:58:52;100410.44;;;10.20;100.00
33795;BME280;51430;52.242;21.118;2024-02-28T07:01:20;100410.41;;;10.15;100.00
33795;BME280;51430;52.242;21.118;2024-02-28T07:03:49;100406.52;;;10.14;100.00
33795;BME280;51430;52.242;21.118;2024-02-28T07:06:19;100409.41;;;10.22;100.00
33795;BME280;51430;52.242;21.118;2024-02-28T07:08:47;100413.30;;;10.24;100.00
33795;BME280;51430;52.242;21.118;2024-02-28T07:11:16;100414.94;;;10.29;100.00
33795;BME280;51430;52.242;21.118;2024-02-28T07:13:44;100425.17;;;10.32;100.00
33795;BME280;51430;52.242;21.118;2024-02-28T07:16:32;100427.21;;;10.26;100.00
33795;BME280;51430;52.242;21.118;2024-02-28T07:20:02;100430.61;;;10.18;100.00
33795;BME280;51430;52.242;21.118;2024-02-28T07:23:45;100430.48;;;10.10;100.00
33795;BME280;51430;52.242;21.118;2024-02-28T07:27:21;100431.77;;;10.21;100.00
33795;BME280;51430;52.242;21.118;2024-02-28T07:30:32;100432.14;;;10.39;100.00
33795;BME280;51430;52.242;21.118;2024-02-28T07:50:13;100440.06;;;10.93;100.00
33795;BME280;51430;52.242;21.118;2024-02-28T07:52:55;100439.94;;;11.04;100.00
33795;BME280;51430;52.242;21.118;2024-02-28T08:03:01;100447.71;;;11.17;100.00
33795;BME280;51430;52.242;21.118;2024-02-28T08:08:17;100451.04;;;11.45;100.00
33795;BME280;51430;52.242;21.118;2024-02-28T08:11:11;100451.65;;;11.17;100.00
33795;BME280;51430;52.242;21.118;2024-02-28T08:13:57;100449.02;;;11.24;100.00
33795;BME280;51430;52.242;21.118;2024-02-28T08:19:49;100453.95;;;11.26;100.00
33795;BME280;51430;52.242;21.118;2024-02-28T08:22:22;100456.63;;;11.36;100.00
33795;BME280;51430;52.242;21.118;2024-02-28T08:24:55;100459.52;;;11.40;100.00
33795;BME280;51430;52.242;21.118;2024-02-28T08:27:28;100459.65;;;11.55;100.00
33795;BME280;51430;52.242;21.118;2024-02-28T08:33:24;100458.17;;;11.77;100.00
33795;BME280;51430;52.242;21.118;2024-02-28T08:39:06;100460.39;;;11.89;100.00
33795;BME280;51430;52.242;21.118;2024-02-28T08:41:44;100458.35;;;12.05;100.00
33795;BME280;51430;52.242;21.118;2024-02-28T08:44:36;100459.44;;;12.11;100.00
33795;BME280;51430;52.242;21.118;2024-02-28T09:11:37;100453.34;;;12.37;100.00
33795;BME280;51430;52.242;21.118;2024-02-28T09:40:51;100465.45;;;13.61;94.72
33795;BME280;51430;52.242;21.118;2024-02-28T10:01:04;100478.30;;;14.07;94.25
33795;BME280;51430;52.242;21.118;2024-02-28T10:07:35;100482.05;;;13.62;96.31
33795;BME280;51430;52.242;21.118;2024-02-28T10:10:07;100479.91;;;13.71;96.87
33795;BME280;51430;52.242;21.118;2024-02-28T10:12:42;100483.41;;;13.83;97.06
33795;BME280;51430;52.242;21.118;2024-02-28T10:18:32;100484.79;;;13.87;94.13
33795;BME280;51430;52.242;21.118;2024-02-28T10:21:52;100482.95;;;13.84;94.00
33795;BME280;51430;52.242;21.118;2024-02-28T10:24:45;100486.77;;;13.90;94.66
33795;BME280;51430;52.242;21.118;2024-02-28T10:27:15;100488.28;;;13.83;97.09
33795;BME280;51430;52.242;21.118;2024-02-28T10:30:24;100488.23;;;13.96;96.21
33795;BME280;51430;52.242;21.118;2024-02-28T10:32:55;100494.39;;;13.85;93.56
33795;BME280;51430;52.242;21.118;2024-02-28T10:36:24;100498.39;;;13.70;93.83
33795;BME280;51430;52.242;21.118;2024-02-28T10:38:55;100498.34;;;13.60;94.69
33795;BME280;51430;52.242;21.118;2024-02-28T10:41:26;100501.26;;;13.63;94.64
33795;BME280;51430;52.242;21.118;2024-02-28T10:43:56;100495.63;;;13.59;95.01
33795;BME280;51430;52.242;21.118;2024-02-28T10:46:24;100495.91;;;13.60;94.68
33795;BME280;51430;52.242;21.118;2024-02-28T10:49:06;100494.68;;;13.48;95.88
33795;BME280;51430;52.242;21.118;2024-02-28T10:51:40;100494.88;;;13.55;96.49
33795;BME280;51430;52.242;21.118;2024-02-28T10:54:29;100494.94;;;13.61;96.16
33795;BME280;51430;52.242;21.118;2024-02-28T11:06:48;100496.08;;;13.66;94.92
33795;BME280;51430;52.242;21.118;2024-02-28T11:10:56;100500.09;;;13.56;94.60
33795;BME280;51430;52.242;21.118;2024-02-28T11:28:07;100501.52;;;13.48;94.78
33795;BME280;51430;52.242;21.118;2024-02-28T11:34:55;100507.88;;;13.51;93.78
33795;BME280;51430;52.242;21.118;2024-02-28T11:37:24;100506.98;;;13.53;93.80
33795;BME280;51430;52.242;21.118;2024-02-28T11:40:01;100509.21;;;13.60;94.32
33795;BME280;51430;52.242;21.118;2024-02-28T11:42:35;100511.63;;;13.66;94.13
33795;BME280;51430;52.242;21.118;2024-02-28T11:45:11;100510.34;;;13.78;93.86
33795;BME280;51430;52.242;21.118;2024-02-28T11:47:39;100513.00;;;13.85;93.97
33795;BME280;51430;52.242;21.118;2024-02-28T11:50:07;100518.42;;;13.87;92.34
33795;BME280;51430;52.242;21.118;2024-02-28T11:52:37;100514.65;;;13.70;91.97
33795;BME280;51430;52.242;21.118;2024-02-28T11:55:24;100512.92;;;13.66;93.67
33795;BME280;51430;52.242;21.118;2024-02-28T12:07:28;100507.87;;;13.74;93.42
33795;BME280;51430;52.242;21.118;2024-02-28T12:23:34;100511.14;;;13.34;94.37
33795;BME280;51430;52.242;21.118;2024-02-28T12:26:23;100506.41;;;13.48;93.59
33795;BME280;51430;52.242;21.118;2024-02-28T12:28:55;100503.56;;;13.46;93.86
33795;BME280;51430;52.242;21.118;2024-02-28T12:31:24;100508.58;;;13.49;94.21
33795;BME280;51430;52.242;21.118;2024-02-28T12:33:54;100510.81;;;13.54;93.45
33795;BME280;51430;52.242;21.118;2024-02-28T12:36:32;100515.45;;;13.53;93.35
33795;BME280;51430;52.242;21.118;2024-02-28T12:39:10;100517.16;;;13.39;94.16
33795;BME280;51430;52.242;21.118;2024-02-28T12:42:06;100520.84;;;13.33;94.27
33795;BME280;51430;52.242;21.118;2024-02-28T12:52:13;100525.71;;;12.71;96.84
33795;BME280;51430;52.242;21.118;2024-02-28T13:01:42;100527.86;;;12.55;95.87
33795;BME280;51430;52.242;21.118;2024-02-28T13:28:52;100545.21;;;11.92;94.36
33795;BME280;51430;52.242;21.118;2024-02-28T13:33:37;100543.27;;;11.69;95.49
33795;BME280;51430;52.242;21.118;2024-02-28T13:37:53;100548.09;;;11.64;97.55
33795;BME280;51430;52.242;21.118;2024-02-28T14:49:42;100599.35;;;11.14;99.99
33795;BME280;51430;52.242;21.118;2024-02-28T15:02:28;100604.79;;;11.09;100.00
33795;BME280;51430;52.242;21.118;2024-02-28T15:25:50;100622.23;;;10.78;100.00
33795;BME280;51430;52.242;21.118;2024-02-28T15:43:37;100631.26;;;11.12;100.00
33795;BME280;51430;52.242;21.118;2024-02-28T15:53:24;100642.38;;;10.94;100.00
33795;BME280;51430;52.242;21.118;2024-02-28T16:01:44;100642.80;;;10.95;100.00
33795;BME280;51430;52.242;21.118;2024-02-28T16:04:14;100643.21;;;10.96;100.00
33795;BME280;51430;52.242;21.118;2024-02-28T16:06:41;100646.80;;;11.00;100.00
33795;BME280;51430;52.242;21.118;2024-02-28T16:09:07;100651.46;;;11.00;100.00
33795;BME280;51430;52.242;21.118;2024-02-28T16:23:33;100671.42;;;10.88;100.00
33795;BME280;51430;52.242;21.118;2024-02-28T16:26:23;100675.54;;;10.86;100.00
33795;BME280;51430;52.242;21.118;2024-02-28T16:29:35;100671.02;;;10.79;100.00
33795;BME280;51430;52.242;21.118;2024-02-28T16:36:20;100683.15;;;10.70;100.00
33795;BME280;51430;52.242;21.118;2024-02-28T16:42:27;100689.96;;;10.65;100.00
33795;BME280;51430;52.242;21.118;2024-02-28T16:49:05;100687.13;;;10.71;100.00
33795;BME280;51430;52.242;21.118;2024-02-28T16:58:46;100692.77;;;10.68;100.00
33795;BME280;51430;52.242;21.118;2024-02-28T17:01:19;100691.94;;;10.62;100.00
33795;BME280;51430;52.242;21.118;2024-02-28T17:07:11;100689.50;;;10.77;100.00
33795;BME280;51430;52.242;21.118;2024-02-28T17:10:17;100694.56;;;10.77;100.00
33795;BME280;51430;52.242;21.118;2024-02-28T17:12:45;100694.66;;;10.85;100.00
33795;BME280;51430;52.242;21.118;2024-02-28T17:15:14;100695.50;;;10.88;100.00
33795;BME280;51430;52.242;21.118;2024-02-28T17:17:45;100698.76;;;10.89;100.00
33795;BME280;51430;52.242;21.118;2024-02-28T17:26:51;100695.16;;;10.68;100.00
33795;BME280;51430;52.242;21.118;2024-02-28T17:29:21;100692.59;;;10.77;100.00
33795;BME280;51430;52.242;21.118;2024-02-28T17:41:07;100702.99;;;10.81;100.00
33795;BME280;51430;52.242;21.118;2024-02-28T17:43:58;100702.23;;;10.81;100.00
33795;BME280;51430;52.242;21.118;2024-02-28T17:56:51;100719.91;;;10.71;100.00
33795;BME280;51430;52.242;21.118;2024-02-28T18:20:21;100717.91;;;10.65;100.00
33795;BME280;51430;52.242;21.118;2024-02-28T19:28:23;100775.95;;;9.80;100.00
33795;BME280;51430;52.242;21.118;2024-02-28T19:35:18;100782.13;;;9.66;100.00
33795;BME280;51430;52.242;21.118;2024-02-28T19:57:57;100794.69;;;9.39;100.00
33795;BME280;51430;52.242;21.118;2024-02-28T20:01:02;100793.84;;;9.41;100.00
33795;BME280;51430;52.242;21.118;2024-02-28T20:04:04;100799.42;;;9.39;100.00
33795;BME280;51430;52.242;21.118;2024-02-28T20:06:58;100802.38;;;9.44;100.00
33795;BME280;51430;52.242;21.118;2024-02-28T20:21:07;100806.92;;;9.22;100.00
33795;BME280;51430;52.242;21.118;2024-02-28T20:24:11;100802.17;;;9.09;100.00
33795;BME280;51430;52.242;21.118;2024-02-28T20:27:27;100813.23;;;9.15;100.00
33795;BME280;51430;52.242;21.118;2024-02-28T20:31:00;100813.98;;;9.20;100.00
33795;BME280;51430;52.242;21.118;2024-02-28T20:38:04;100818.04;;;9.27;100.00
33795;BME280;51430;52.242;21.118;2024-02-28T20:40:35;100819.10;;;9.27;100.00
33795;BME280;51430;52.242;21.118;2024-02-28T20:43:10;100826.91;;;9.38;100.00
33795;BME280;51430;52.242;21.118;2024-02-28T20:45:39;100826.80;;;9.43;100.00
33795;BME280;51430;52.242;21.118;2024-02-28T20:48:14;100829.78;;;9.45;100.00
33795;BME280;51430;52.242;21.118;2024-02-28T20:50:46;100832.95;;;9.39;100.00
33795;BME280;51430;52.242;21.118;2024-02-28T20:53:17;100833.92;;;9.45;100.00
33795;BME280;51430;52.242;21.118;2024-02-28T20:56:12;100838.52;;;9.31;100.00
33795;BME280;51430;52.242;21.118;2024-02-28T20:59:00;100846.16;;;9.31;100.00
33795;BME280;51430;52.242;21.118;2024-02-28T21:05:22;100853.73;;;9.27;100.00
33795;BME280;51430;52.242;21.118;2024-02-28T21:08:12;100849.80;;;9.37;100.00
33795;BME280;51430;52.242;21.118;2024-02-28T21:10:47;100853.85;;;9.36;100.00
33795;BME280;51430;52.242;21.118;2024-02-28T21:16:32;100856.24;;;9.31;100.00
33795;BME280;51430;52.242;21.118;2024-02-28T21:19:04;100865.55;;;9.38;100.00
33795;BME280;51430;52.242;21.118;2024-02-28T21:30:32;100875.34;;;9.12;100.00
33795;BME280;51430;52.242;21.118;2024-02-28T21:33:16;100877.16;;;9.22;100.00
33795;BME280;51430;52.242;21.118;2024-02-28T21:40:54;100878.20;;;9.06;100.00
33795;BME280;51430;52.242;21.118;2024-02-28T21:43:57;100879.15;;;9.10;100.00
33795;BME280;51430;52.242;21.118;2024-02-28T21:46:47;100882.64;;;9.13;100.00
33795;BME280;51430;52.242;21.118;2024-02-28T21:49:16;100883.83;;;9.02;100.00
33795;BME280;51430;52.242;21.118;2024-02-28T21:52:08;100889.34;;;9.03;100.00
33795;BME280;51430;52.242;21.118;2024-02-28T21:54:41;100893.48;;;9.12;100.00
33795;BME280;51430;52.242;21.118;2024-02-28T21:57:11;100896.79;;;9.09;100.00
33795;BME280;51430;52.242;21.118;2024-02-28T21:59:40;100891.65;;;9.13;100.00
33795;BME280;51430;52.242;21.118;2024-02-28T22:02:09;100889.22;;;8.99;100.00
33795;BME280;51430;52.242;21.118;2024-02-28T22:05:04;100896.58;;;8.81;100.00
33795;BME280;51430;52.242;21.118;2024-02-28T22:07:40;100892.14;;;8.80;100.00
33795;BME280;51430;52.242;21.118;2024-02-28T22:10:19;100890.84;;;8.90;100.00
33795;BME280;51430;52.242;21.118;2024-02-28T22:12:54;100895.54;;;9.04;100.00
33795;BME280;51430;52.242;21.118;2024-02-28T22:15:24;100901.09;;;9.18;100.00
33795;BME280;51430;52.242;21.118;2024-02-28T22:17:56;100906.58;;;9.28;100.00